Clara, Argentina
Current Conditions -  °F | °C
As of 6:00 AM on Thursday 18 Dec 2014 (Local Time) from SUSO Reporting Station
Clear Clear  
Wind Chill: 64°   Ceiling: Unl
Heat Index: 64°   Visibility: 5mi
Dew Point: 64°   Wind: 2mph
Humidity: 100%   Direction: NA
Pressure: 29.88"   Gusts: NA
Location:  31.83°S, 58.82°W
Report Text: SUSO 180900Z VRB02KT 8000 NSC 18/18 Q1012
Loading
Personal Weather Stations






























Interactive Weather Map New forecast layout! Learn more

10-Day Weather Forecast

Advertisements
Track Severe Weather on mobile